Share

Zapata, TX

08:11 PM CDT am 23. April 2014 (GMT -0500)
Laredo International (KLRD) Höhe 509 ft | 27.54 °N, 99.46 °W | Change Station

Current weather conditions updated 15 minutes ago

Clear
Heiter
87 °F
gefühlte 88 °F
N
14
Wind Wechselnd Wind aus Südost
Sonnenaufgang 7:05 AM
Sonnenuntergang 8:05 PM
Mond Letztes Viertel

Morgen wird es voraussichtlich wärmer als heute.

Druck 29.68 inch
Sichtweite 10.0 Meilen
Wolken Heiter
Hitzeindex 88 °F
Taupunkt 64 °F
Feuchtigkeit 46%
Regen 0.00 inch
Schneehöhe Nicht verfügbar..
UV 0 von 16
Pollen 9.00 von 12
Luftqualität Nicht verfügbar..
Flu Activity Local Activity
METAR KLRD 240056Z 14012KT 10SM CLR 31/18 A2972 RMK AO2 T03050177 SLP051

More Conditions Fewer Conditions

Druck 29.68 inch
Sichtweite 10.0 Meilen
Wolken Heiter
Hitzeindex 88 °F
Taupunkt 64 °F
Feuchtigkeit 46%
Regen 0.00 inch
Schneehöhe Nicht verfügbar..
UV 0 von 16
Pollen 9.00 von 12
Luftqualität Nicht verfügbar..
Flu Activity Local Activity
METAR KLRD 240056Z 14012KT 10SM CLR 31/18 A2972 RMK AO2 T03050177 SLP051

More Conditions Fewer Conditions

10-Day Weather Forecast

Almanac

Astronomie

Apr. 23, 2014 Aufgang Untergang
Genaue Zeit 07:05 CDT 20:05 CDT
Bürgerliche Dämmerung 06:41 CDT 20:29 CDT
Nautische Dämmerung 06:12 CDT 20:58 CDT
Astronomische Dämmerung 05:43 CDT 21:27 CDT
Mond 03:04 CDT (4/23) 14:47 CDT (4/23)
Länge des sichtbaren Lichts 13h 48m
Tageslänge
13h 00m
Tomorrow will be 1m 25s longer.
Letztes Viertel, 31% of the Moon is Illuminated
Heute
Letztes Viertel
Apr 29
Neu
Mai 6
Erstes Viertel
Mai 14
Vollmond
Mai 21
Letztes Viertel

Heutige Rekorde

State Highs State Lows

Community

  • Nestled In
    Nestled In
  • Stunning Sunrise
    Stunning Sunrise
  • spring flowers
    spring flowers
  • Earth Day Spectrum Ove' Blue
    Earth Day Spectrum Ove' Blue
  • BARN B&W
    BARN B&W

WunderPhotos

Upload Photos

1,704,485 Fotos hochgeladen!

Nearby

Schneehöhe

Station Depth Höhe
Kein Neuschnee gemeldet.

küstennahe Wassertemperaturen

Ort Temperatur
Kein Stationsbericht

Erdbebenaktivität

Stadt Distance Mag. Time & Date
No recent earthquake activity has been reported nearby.
Minimum magnitude displayed is 2.5.

Wetterstationen in der Umgebung

Stationsstandort Temp. Hitzeindex Taupunkt Feuchtigkeit Wind Precip. Höhe Aktualisiert Art
RAWS FALCON LAKE TX, Falcon Heights, TX 82 °F 83 °F 64 °F 54% Ost-Südost  mit  11 mph 0.00 inch / hr 219 ft 7:11 PM CDT MADIS

Show More Stations Show Fewer Stations

What do you think?

We're not finished. Please let us know what you like, what you don't like, and what you are still missing.